Terminal Aerodrome Forecast
Issued by NWS

Home | Current Version | Previous Version | Text Only | Print | Product List | Glossary On
Versions: 1 2 3 4 5 6 7 8 9 10 11 12 13 14 15 16 17 18 19 20 21 22 23 24 25 26
476
FTUS44 KFWD 202320
TAFFTW
TAF
KFTW 202320Z 2100/2124 12015KT P6SM SCT250
     FM211400 14013KT 5SM -SHRA BR VCTS OVC012CB
     FM211800 15015KT P6SM BKN015
     FM212300 06010KT P6SM VCTS OVC025CB=

USA.gov is the U.S. government's official web portal to all federal, state and local government web resources and services.